Time,TemperatureF,DewpointF,PressureIn,WindDirection,WindDirectionDegrees,WindSpeedMPH,WindSpeedGustMPH,Humidity,HourlyPrecipIn,Conditions,Clouds,dailyrainin,SolarRadiationWatts/m^2,SoftwareType,DateUTC
2013-01-14 00:03:00,26.0,14.0,-100.00,North,7,6.0,10.0,61,0.00,,,0.00,0.000000,,2013-01-14 06:03:00,
2013-01-14 00:33:00,26.0,16.0,-100.00,NNE,17,6.0,10.0,64,0.00,,,0.00,0.000000,,2013-01-14 06:33:00,
2013-01-14 00:43:00,26.0,16.0,-100.00,NNE,17,6.0,10.0,64,0.00,,,0.00,0.000000,,2013-01-14 06:43:00,
2013-01-14 00:53:00,26.0,16.0,-100.00,NNE,17,6.0,10.0,64,0.00,,,0.00,0.000000,,2013-01-14 06:53:00,
2013-01-14 01:02:00,26.0,16.0,-100.00,NNE,17,6.0,10.0,64,0.00,,,0.00,0.000000,,2013-01-14 07:02:00,
2013-01-14 01:33:00,25.0,14.0,-100.00,NNE,20,5.0,9.0,62,0.00,,,0.00,0.000000,,2013-01-14 07:33:00,
2013-01-14 01:43:00,25.0,14.0,-100.00,NNE,20,5.0,9.0,62,0.00,,,0.00,0.000000,,2013-01-14 07:43:00,
2013-01-14 01:53:00,25.0,14.0,-100.00,NNE,20,5.0,9.0,62,0.00,,,0.00,0.000000,,2013-01-14 07:53:00,
2013-01-14 02:02:00,25.0,14.0,-100.00,NNE,20,5.0,9.0,62,0.00,,,0.00,0.000000,,2013-01-14 08:02:00,
2013-01-14 02:33:00,24.0,14.0,-100.00,North,6,5.0,10.0,65,0.00,,,0.00,0.000000,,2013-01-14 08:33:00,
2013-01-14 02:43:00,24.0,14.0,-100.00,North,6,5.0,10.0,65,0.00,,,0.00,0.000000,,2013-01-14 08:43:00,
2013-01-14 02:53:00,24.0,14.0,-100.00,North,6,5.0,10.0,65,0.00,,,0.00,0.000000,,2013-01-14 08:53:00,
2013-01-14 03:02:00,24.0,14.0,-100.00,North,6,5.0,10.0,65,0.00,,,0.00,0.000000,,2013-01-14 09:02:00,
2013-01-14 03:34:00,23.0,14.0,-100.00,NNW,346,4.0,11.0,68,0.00,,,0.00,0.000000,,2013-01-14 09:34:00,
2013-01-14 03:43:00,23.0,14.0,-100.00,NNW,346,4.0,11.0,68,0.00,,,0.00,0.000000,,2013-01-14 09:43:00,
2013-01-14 03:53:00,23.0,14.0,-100.00,NNW,346,4.0,11.0,68,0.00,,,0.00,0.000000,,2013-01-14 09:53:00,
2013-01-14 04:02:00,23.0,14.0,-100.00,NNW,346,4.0,11.0,68,0.00,,,0.00,0.000000,,2013-01-14 10:02:00,
2013-01-14 04:33:00,24.0,16.0,-100.00,NNW,348,8.0,12.0,70,0.00,,,0.00,0.000000,,2013-01-14 10:33:00,
2013-01-14 04:43:00,24.0,16.0,-100.00,NNW,348,8.0,12.0,70,0.00,,,0.00,0.000000,,2013-01-14 10:43:00,
2013-01-14 04:53:00,24.0,16.0,-100.00,NNW,348,8.0,12.0,70,0.00,,,0.00,0.000000,,2013-01-14 10:53:00,
2013-01-14 05:02:00,24.0,16.0,-100.00,NNW,348,8.0,12.0,70,0.00,,,0.00,0.000000,,2013-01-14 11:02:00,
2013-01-14 05:33:00,25.0,15.0,-100.00,NNE,14,5.0,12.0,65,0.00,,,0.00,0.000000,,2013-01-14 11:33:00,
2013-01-14 05:43:00,25.0,15.0,-100.00,NNE,14,5.0,12.0,65,0.00,,,0.00,0.000000,,2013-01-14 11:43:00,
2013-01-14 05:53:00,25.0,15.0,-100.00,NNE,14,5.0,12.0,65,0.00,,,0.00,0.000000,,2013-01-14 11:53:00,
2013-01-14 06:03:00,25.0,15.0,-100.00,NNE,14,5.0,12.0,65,0.00,,,0.00,0.000000,,2013-01-14 12:03:00,
2013-01-14 06:33:00,26.0,13.0,-100.00,NNE,30,6.0,13.0,58,0.00,,,0.00,0.000000,,2013-01-14 12:33:00,
2013-01-14 06:43:00,26.0,13.0,-100.00,NNE,30,6.0,13.0,58,0.00,,,0.00,0.000000,,2013-01-14 12:43:00,
2013-01-14 06:53:00,26.0,13.0,-100.00,NNE,30,6.0,13.0,58,0.00,,,0.00,0.000000,,2013-01-14 12:53:00,
2013-01-14 07:03:00,26.0,13.0,-100.00,NNE,30,6.0,13.0,58,0.00,,,0.00,0.000000,,2013-01-14 13:03:00,
2013-01-14 07:34:00,25.0,13.0,-100.00,NNE,14,6.0,11.0,59,0.00,,,0.00,0.000000,,2013-01-14 13:34:00,
2013-01-14 07:43:00,25.0,13.0,-100.00,NNE,14,6.0,11.0,59,0.00,,,0.00,0.000000,,2013-01-14 13:43:00,
2013-01-14 07:53:00,25.0,13.0,-100.00,NNE,14,6.0,11.0,59,0.00,,,0.00,0.000000,,2013-01-14 13:53:00,
2013-01-14 08:03:00,25.0,13.0,-100.00,NNE,14,6.0,11.0,59,0.00,,,0.00,0.000000,,2013-01-14 14:03:00,
2013-01-14 08:33:00,24.0,13.0,-100.00,NNE,23,6.0,12.0,61,0.00,,,0.00,4.000000,,2013-01-14 14:33:00,
2013-01-14 08:43:00,24.0,13.0,-100.00,NNE,23,6.0,12.0,61,0.00,,,0.00,4.000000,,2013-01-14 14:43:00,
2013-01-14 08:53:00,24.0,13.0,-100.00,NNE,23,6.0,12.0,61,0.00,,,0.00,4.000000,,2013-01-14 14:53:00,
2013-01-14 09:03:00,24.0,13.0,-100.00,NNE,23,6.0,12.0,61,0.00,,,0.00,4.000000,,2013-01-14 15:03:00,
2013-01-14 09:34:00,27.0,14.0,-100.00,NNE,30,8.0,11.0,58,0.00,,,0.00,179.000000,,2013-01-14 15:34:00,
2013-01-14 09:43:00,27.0,14.0,-100.00,NNE,30,8.0,11.0,58,0.00,,,0.00,179.000000,,2013-01-14 15:43:00,
2013-01-14 09:53:00,27.0,14.0,-100.00,NNE,30,8.0,11.0,58,0.00,,,0.00,179.000000,,2013-01-14 15:53:00,
2013-01-14 10:03:00,27.0,14.0,-100.00,NNE,30,8.0,11.0,58,0.00,,,0.00,179.000000,,2013-01-14 16:03:00,
2013-01-14 10:33:00,30.0,15.0,-100.00,NNE,24,8.0,15.0,52,0.00,,,0.00,440.000000,,2013-01-14 16:33:00,
2013-01-14 10:43:00,30.0,15.0,-100.00,NNE,24,8.0,15.0,52,0.00,,,0.00,440.000000,,2013-01-14 16:43:00,
2013-01-14 10:53:00,30.0,15.0,-100.00,NNE,24,8.0,15.0,52,0.00,,,0.00,440.000000,,2013-01-14 16:53:00,
2013-01-14 11:03:00,30.0,15.0,-100.00,NNE,24,8.0,15.0,52,0.00,,,0.00,440.000000,,2013-01-14 17:03:00,
2013-01-14 11:33:00,34.0,17.0,-100.00,NE,52,7.0,13.0,49,0.00,,,0.00,635.000000,,2013-01-14 17:33:00,
2013-01-14 11:43:00,34.0,17.0,-100.00,NE,52,7.0,13.0,49,0.00,,,0.00,635.000000,,2013-01-14 17:43:00,
2013-01-14 11:54:00,34.0,17.0,-100.00,NE,52,7.0,13.0,49,0.00,,,0.00,635.000000,,2013-01-14 17:54:00,
2013-01-14 12:03:00,34.0,17.0,-100.00,NE,52,7.0,13.0,49,0.00,,,0.00,635.000000,,2013-01-14 18:03:00,
2013-01-14 12:33:00,38.0,19.0,-100.00,NE,38,7.0,12.0,46,0.00,,,0.00,754.000000,,2013-01-14 18:33:00,
2013-01-14 12:43:00,38.0,19.0,-100.00,NE,38,7.0,12.0,46,0.00,,,0.00,754.000000,,2013-01-14 18:43:00,
2013-01-14 12:53:00,38.0,19.0,-100.00,NE,38,7.0,12.0,46,0.00,,,0.00,754.000000,,2013-01-14 18:53:00,
2013-01-14 13:03:00,38.0,19.0,-100.00,NE,38,7.0,12.0,46,0.00,,,0.00,754.000000,,2013-01-14 19:03:00,
2013-01-14 13:33:00,41.0,21.0,-100.00,NE,45,6.0,14.0,45,0.00,,,0.00,790.000000,,2013-01-14 19:33:00,
2013-01-14 13:43:00,41.0,21.0,-100.00,NE,45,6.0,14.0,45,0.00,,,0.00,790.000000,,2013-01-14 19:43:00,
2013-01-14 13:53:00,41.0,21.0,-100.00,NE,45,6.0,14.0,45,0.00,,,0.00,790.000000,,2013-01-14 19:53:00,
2013-01-14 14:03:00,41.0,21.0,-100.00,NE,45,6.0,14.0,45,0.00,,,0.00,790.000000,,2013-01-14 20:03:00,
2013-01-14 14:33:00,42.0,17.0,-100.00,ENE,60,8.0,14.0,36,0.00,,,0.00,758.000000,,2013-01-14 20:33:00,
2013-01-14 14:43:00,42.0,17.0,-100.00,ENE,60,8.0,14.0,36,0.00,,,0.00,758.000000,,2013-01-14 20:43:00,
2013-01-14 14:53:00,42.0,17.0,-100.00,ENE,60,8.0,14.0,36,0.00,,,0.00,758.000000,,2013-01-14 20:53:00,
2013-01-14 15:03:00,42.0,17.0,-100.00,ENE,60,8.0,14.0,36,0.00,,,0.00,758.000000,,2013-01-14 21:03:00,
2013-01-14 15:33:00,44.0,15.0,-100.00,ESE,104,9.0,14.0,30,0.00,,,0.00,658.000000,,2013-01-14 21:33:00,
2013-01-14 15:43:00,44.0,15.0,-100.00,ESE,104,9.0,14.0,30,0.00,,,0.00,658.000000,,2013-01-14 21:43:00,
2013-01-14 15:53:00,44.0,15.0,-100.00,ESE,104,9.0,14.0,30,0.00,,,0.00,658.000000,,2013-01-14 21:53:00,
2013-01-14 16:03:00,44.0,15.0,-100.00,ESE,104,9.0,14.0,30,0.00,,,0.00,658.000000,,2013-01-14 22:03:00,
2013-01-14 16:33:00,44.0,14.0,-100.00,ENE,58,7.0,13.0,29,0.00,,,-99.99,494.000000,,2013-01-14 22:33:00,
2013-01-14 16:43:00,44.0,14.0,-100.00,ENE,58,7.0,13.0,29,0.00,,,-99.99,494.000000,,2013-01-14 22:43:00,
2013-01-14 16:53:00,44.0,14.0,-100.00,ENE,58,7.0,13.0,29,0.00,,,-99.99,494.000000,,2013-01-14 22:53:00,
2013-01-14 17:03:00,44.0,14.0,-100.00,ENE,58,7.0,13.0,29,0.00,,,-99.99,494.000000,,2013-01-14 23:03:00,
2013-01-14 17:33:00,43.0,14.0,-100.00,NE,46,6.0,12.0,31,0.00,,,0.00,291.000000,,2013-01-14 23:33:00,
2013-01-14 17:43:00,43.0,14.0,-100.00,NE,46,6.0,12.0,31,0.00,,,0.00,291.000000,,2013-01-14 23:43:00,
2013-01-14 17:53:00,43.0,14.0,-100.00,NE,46,6.0,12.0,31,0.00,,,0.00,291.000000,,2013-01-14 23:53:00,
2013-01-14 18:03:00,43.0,14.0,-100.00,NE,46,6.0,12.0,31,0.00,,,0.00,291.000000,,2013-01-15 00:03:00,
2013-01-14 18:33:00,39.0,13.0,-100.00,ENE,68,6.0,11.0,34,0.00,,,0.00,59.000000,,2013-01-15 00:33:00,
2013-01-14 18:43:00,39.0,13.0,-100.00,ENE,68,6.0,11.0,34,0.00,,,0.00,59.000000,,2013-01-15 00:43:00,
2013-01-14 18:53:00,39.0,13.0,-100.00,ENE,68,6.0,11.0,34,0.00,,,0.00,59.000000,,2013-01-15 00:53:00,
2013-01-14 19:02:00,39.0,13.0,-100.00,ENE,68,6.0,11.0,34,0.00,,,0.00,59.000000,,2013-01-15 01:02:00,
2013-01-14 20:33:00,35.0,18.0,-100.00,NE,55,5.0,7.0,49,-99.99,,,0.00,0.000000,,2013-01-15 02:33:00,
2013-01-14 20:43:00,35.0,18.0,-100.00,NE,55,5.0,7.0,49,-99.99,,,0.00,0.000000,,2013-01-15 02:43:00,
2013-01-14 20:53:00,35.0,18.0,-100.00,NE,55,5.0,7.0,49,-99.99,,,0.00,0.000000,,2013-01-15 02:53:00,
2013-01-14 21:02:00,35.0,18.0,-100.00,NE,55,5.0,7.0,49,-99.99,,,0.00,0.000000,,2013-01-15 03:02:00,
2013-01-14 21:33:00,35.0,17.0,-100.00,ENE,65,7.0,11.0,47,0.00,,,0.00,0.000000,,2013-01-15 03:33:00,
2013-01-14 21:43:00,35.0,17.0,-100.00,ENE,65,7.0,11.0,47,0.00,,,0.00,0.000000,,2013-01-15 03:43:00,
2013-01-14 21:53:00,35.0,17.0,-100.00,ENE,65,7.0,11.0,47,0.00,,,0.00,0.000000,,2013-01-15 03:53:00,
2013-01-14 22:02:00,35.0,17.0,-100.00,ENE,65,7.0,11.0,47,0.00,,,0.00,0.000000,,2013-01-15 04:02:00,
2013-01-14 22:33:00,34.0,18.0,-100.00,ENE,64,7.0,12.0,52,0.00,,,0.00,0.000000,,2013-01-15 04:33:00,
2013-01-14 22:42:00,34.0,18.0,-100.00,ENE,64,7.0,12.0,52,0.00,,,0.00,0.000000,,2013-01-15 04:42:00,
2013-01-14 22:52:00,34.0,18.0,-100.00,ENE,64,7.0,12.0,52,0.00,,,0.00,0.000000,,2013-01-15 04:52:00,
2013-01-14 23:03:00,34.0,18.0,-100.00,ENE,64,7.0,12.0,52,0.00,,,0.00,0.000000,,2013-01-15 05:03:00,
2013-01-14 23:33:00,33.0,19.0,-100.00,ENE,65,6.0,11.0,56,0.00,,,0.00,0.000000,,2013-01-15 05:33:00,
2013-01-14 23:42:00,33.0,19.0,-100.00,ENE,65,6.0,11.0,56,0.00,,,0.00,0.000000,,2013-01-15 05:42:00,
2013-01-14 23:53:00,33.0,19.0,-100.00,ENE,65,6.0,11.0,56,0.00,,,0.00,0.000000,,2013-01-15 05:53:00,